sensor_id;sensor_type;location;lat;lon;timestamp;pressure;altitude;pressure_sealevel;temperature
76713;BMP280;65640;43.154;25.658;2023-02-15T00:01:11;102043.47;;;3.63
76713;BMP280;65640;43.154;25.658;2023-02-15T00:03:37;102047.84;;;3.62
76713;BMP280;65640;43.154;25.658;2023-02-15T00:06:04;102055.81;;;3.61
76713;BMP280;65640;43.154;25.658;2023-02-15T00:08:30;102050.19;;;3.57
76713;BMP280;65640;43.154;25.658;2023-02-15T00:11:15;102054.09;;;3.53
76713;BMP280;65640;43.154;25.658;2023-02-15T00:13:40;102051.41;;;3.46
76713;BMP280;65640;43.154;25.658;2023-02-15T00:16:08;102051.94;;;3.42
76713;BMP280;65640;43.154;25.658;2023-02-15T00:18:34;102055.06;;;3.37
76713;BMP280;65640;43.154;25.658;2023-02-15T00:21:07;102052.66;;;3.36
76713;BMP280;65640;43.154;25.658;2023-02-15T00:23:33;102055.31;;;3.28
76713;BMP280;65640;43.154;25.658;2023-02-15T00:26:10;102056.38;;;3.18
76713;BMP280;65640;43.154;25.658;2023-02-15T00:28:36;102047.25;;;3.08
76713;BMP280;65640;43.154;25.658;2023-02-15T00:31:09;102054.53;;;3.04
76713;BMP280;65640;43.154;25.658;2023-02-15T00:33:35;102053.84;;;3.10
76713;BMP280;65640;43.154;25.658;2023-02-15T00:36:01;102048.91;;;3.01
76713;BMP280;65640;43.154;25.658;2023-02-15T00:38:28;102041.31;;;2.99
76713;BMP280;65640;43.154;25.658;2023-02-15T00:40:58;102043.44;;;2.96
76713;BMP280;65640;43.154;25.658;2023-02-15T00:43:25;102042.81;;;2.94
76713;BMP280;65640;43.154;25.658;2023-02-15T00:45:51;102038.81;;;2.91
76713;BMP280;65640;43.154;25.658;2023-02-15T00:48:16;102043.53;;;2.88
76713;BMP280;65640;43.154;25.658;2023-02-15T00:50:45;102039.50;;;2.85
76713;BMP280;65640;43.154;25.658;2023-02-15T00:53:10;102044.38;;;2.80
76713;BMP280;65640;43.154;25.658;2023-02-15T00:55:36;102039.53;;;2.77
76713;BMP280;65640;43.154;25.658;2023-02-15T00:58:02;102037.75;;;2.77
76713;BMP280;65640;43.154;25.658;2023-02-15T01:00:27;102033.72;;;2.75
76713;BMP280;65640;43.154;25.658;2023-02-15T01:02:52;102034.88;;;2.72
76713;BMP280;65640;43.154;25.658;2023-02-15T01:05:18;102036.56;;;2.65
76713;BMP280;65640;43.154;25.658;2023-02-15T01:07:43;102037.72;;;2.63
76713;BMP280;65640;43.154;25.658;2023-02-15T01:10:09;102042.13;;;2.54
76713;BMP280;65640;43.154;25.658;2023-02-15T01:12:34;102043.16;;;2.45
76713;BMP280;65640;43.154;25.658;2023-02-15T01:15:00;102041.72;;;2.34
76713;BMP280;65640;43.154;25.658;2023-02-15T01:17:25;102032.25;;;2.27
76713;BMP280;65640;43.154;25.658;2023-02-15T01:19:51;102034.84;;;2.27
76713;BMP280;65640;43.154;25.658;2023-02-15T01:22:17;102034.88;;;2.19
76713;BMP280;65640;43.154;25.658;2023-02-15T01:24:42;102031.69;;;2.08
76713;BMP280;65640;43.154;25.658;2023-02-15T01:27:08;102036.03;;;2.08
76713;BMP280;65640;43.154;25.658;2023-02-15T01:29:33;102027.31;;;2.09
76713;BMP280;65640;43.154;25.658;2023-02-15T01:31:59;102034.44;;;2.07
76713;BMP280;65640;43.154;25.658;2023-02-15T01:34:24;102028.63;;;2.13
76713;BMP280;65640;43.154;25.658;2023-02-15T01:36:50;102024.41;;;2.12
76713;BMP280;65640;43.154;25.658;2023-02-15T01:39:15;102022.16;;;2.09
76713;BMP280;65640;43.154;25.658;2023-02-15T01:41:40;102025.25;;;2.04
76713;BMP280;65640;43.154;25.658;2023-02-15T01:47:17;102026.72;;;1.99
76713;BMP280;65640;43.154;25.658;2023-02-15T01:49:46;102031.75;;;1.92
76713;BMP280;65640;43.154;25.658;2023-02-15T01:52:14;102033.44;;;1.77
76713;BMP280;65640;43.154;25.658;2023-02-15T01:54:42;102040.22;;;1.78
76713;BMP280;65640;43.154;25.658;2023-02-15T01:57:18;102035.22;;;1.77
76713;BMP280;65640;43.154;25.658;2023-02-15T01:59:47;102040.06;;;1.71
76713;BMP280;65640;43.154;25.658;2023-02-15T02:02:14;102033.75;;;1.74
76713;BMP280;65640;43.154;25.658;2023-02-15T02:04:53;102028.75;;;1.72
76713;BMP280;65640;43.154;25.658;2023-02-15T02:07:23;102027.47;;;1.68
76713;BMP280;65640;43.154;25.658;2023-02-15T02:09:49;102023.28;;;1.59
76713;BMP280;65640;43.154;25.658;2023-02-15T02:12:16;102029.44;;;1.50
76713;BMP280;65640;43.154;25.658;2023-02-15T02:14:43;102033.78;;;1.42
76713;BMP280;65640;43.154;25.658;2023-02-15T02:17:26;102042.69;;;1.31
76713;BMP280;65640;43.154;25.658;2023-02-15T02:25:54;102032.69;;;1.28
76713;BMP280;65640;43.154;25.658;2023-02-15T02:39:10;102047.53;;;1.18
76713;BMP280;65640;43.154;25.658;2023-02-15T02:41:40;102055.09;;;1.11
76713;BMP280;65640;43.154;25.658;2023-02-15T02:46:58;102061.06;;;1.20
76713;BMP280;65640;43.154;25.658;2023-02-15T02:49:38;102056.88;;;1.11
76713;BMP280;65640;43.154;25.658;2023-02-15T02:52:52;102056.84;;;1.02
76713;BMP280;65640;43.154;25.658;2023-02-15T02:54:53;102069.09;;;1.00
76713;BMP280;65640;43.154;25.658;2023-02-15T02:57:20;102071.03;;;0.98
76713;BMP280;65640;43.154;25.658;2023-02-15T02:59:48;102067.47;;;0.99
76713;BMP280;65640;43.154;25.658;2023-02-15T03:02:20;102061.84;;;1.04
76713;BMP280;65640;43.154;25.658;2023-02-15T03:04:49;102066.69;;;0.99
76713;BMP280;65640;43.154;25.658;2023-02-15T03:07:24;102081.00;;;0.93
76713;BMP280;65640;43.154;25.658;2023-02-15T03:09:51;102074.72;;;0.96
76713;BMP280;65640;43.154;25.658;2023-02-15T03:12:27;102079.72;;;0.97
76713;BMP280;65640;43.154;25.658;2023-02-15T03:15:01;102073.59;;;0.98
76713;BMP280;65640;43.154;25.658;2023-02-15T03:17:31;102082.16;;;0.99
76713;BMP280;65640;43.154;25.658;2023-02-15T03:20:02;102082.63;;;0.94
76713;BMP280;65640;43.154;25.658;2023-02-15T03:22:32;102084.22;;;0.87
76713;BMP280;65640;43.154;25.658;2023-02-15T03:27:43;102090.28;;;0.70
76713;BMP280;65640;43.154;25.658;2023-02-15T03:30:10;102091.09;;;0.70
76713;BMP280;65640;43.154;25.658;2023-02-15T03:32:37;102098.50;;;0.74
76713;BMP280;65640;43.154;25.658;2023-02-15T03:35:05;102092.69;;;0.72
76713;BMP280;65640;43.154;25.658;2023-02-15T03:37:39;102095.28;;;0.72
76713;BMP280;65640;43.154;25.658;2023-02-15T03:40:19;102095.63;;;0.77
76713;BMP280;65640;43.154;25.658;2023-02-15T03:43:17;102103.00;;;0.72
76713;BMP280;65640;43.154;25.658;2023-02-15T03:45:48;102098.97;;;0.69
76713;BMP280;65640;43.154;25.658;2023-02-15T03:48:30;102106.53;;;0.70
76713;BMP280;65640;43.154;25.658;2023-02-15T03:51:02;102111.53;;;0.64
76713;BMP280;65640;43.154;25.658;2023-02-15T03:53:48;102114.06;;;0.56
76713;BMP280;65640;43.154;25.658;2023-02-15T03:56:14;102121.16;;;0.54
76713;BMP280;65640;43.154;25.658;2023-02-15T03:58:40;102127.72;;;0.48
76713;BMP280;65640;43.154;25.658;2023-02-15T04:04:19;102135.28;;;0.50
76713;BMP280;65640;43.154;25.658;2023-02-15T04:06:45;102136.84;;;0.34
76713;BMP280;65640;43.154;25.658;2023-02-15T04:09:11;102141.28;;;0.24
76713;BMP280;65640;43.154;25.658;2023-02-15T04:11:55;102149.16;;;0.23
76713;BMP280;65640;43.154;25.658;2023-02-15T04:14:21;102135.22;;;0.33
76713;BMP280;65640;43.154;25.658;2023-02-15T04:17:06;102140.06;;;0.37
76713;BMP280;65640;43.154;25.658;2023-02-15T04:19:32;102138.94;;;0.39
76713;BMP280;65640;43.154;25.658;2023-02-15T04:22:16;102140.03;;;0.28
76713;BMP280;65640;43.154;25.658;2023-02-15T04:25:00;102138.56;;;0.26
76713;BMP280;65640;43.154;25.658;2023-02-15T04:27:35;102140.66;;;0.22
76713;BMP280;65640;43.154;25.658;2023-02-15T04:30:01;102142.22;;;0.15
76713;BMP280;65640;43.154;25.658;2023-02-15T04:32:26;102146.72;;;0.13
76713;BMP280;65640;43.154;25.658;2023-02-15T04:34:52;102149.00;;;0.16
76713;BMP280;65640;43.154;25.658;2023-02-15T04:37:18;102149.59;;;0.10
76713;BMP280;65640;43.154;25.658;2023-02-15T04:39:43;102151.50;;;0.08
76713;BMP280;65640;43.154;25.658;2023-02-15T04:42:08;102154.13;;;0.16
76713;BMP280;65640;43.154;25.658;2023-02-15T04:44:34;102146.84;;;0.12
76713;BMP280;65640;43.154;25.658;2023-02-15T04:46:59;102152.00;;;0.12
76713;BMP280;65640;43.154;25.658;2023-02-15T04:49:25;102147.00;;;0.10
76713;BMP280;65640;43.154;25.658;2023-02-15T04:51:50;102150.19;;;0.04
76713;BMP280;65640;43.154;25.658;2023-02-15T04:54:15;102155.13;;;-0.03
76713;BMP280;65640;43.154;25.658;2023-02-15T04:56:41;102161.09;;;-0.02
76713;BMP280;65640;43.154;25.658;2023-02-15T04:59:09;102164.00;;;0.03
76713;BMP280;65640;43.154;25.658;2023-02-15T05:01:35;102165.78;;;0.03
76713;BMP280;65640;43.154;25.658;2023-02-15T05:04:00;102171.88;;;0.02
76713;BMP280;65640;43.154;25.658;2023-02-15T05:06:26;102176.22;;;0.01
76713;BMP280;65640;43.154;25.658;2023-02-15T05:08:51;102177.84;;;0.02
76713;BMP280;65640;43.154;25.658;2023-02-15T05:11:17;102181.69;;;-0.02
76713;BMP280;65640;43.154;25.658;2023-02-15T05:13:42;102188.22;;;-0.08
76713;BMP280;65640;43.154;25.658;2023-02-15T05:16:07;102193.09;;;-0.05
76713;BMP280;65640;43.154;25.658;2023-02-15T05:18:33;102183.44;;;-0.03
76713;BMP280;65640;43.154;25.658;2023-02-15T05:20:58;102194.41;;;-0.01
76713;BMP280;65640;43.154;25.658;2023-02-15T05:23:24;102195.22;;;0.00
76713;BMP280;65640;43.154;25.658;2023-02-15T05:25:50;102194.88;;;0.03
76713;BMP280;65640;43.154;25.658;2023-02-15T05:28:35;102200.03;;;0.03
76713;BMP280;65640;43.154;25.658;2023-02-15T05:33:33;102198.28;;;0.04
76713;BMP280;65640;43.154;25.658;2023-02-15T05:35:59;102203.13;;;0.07
76713;BMP280;65640;43.154;25.658;2023-02-15T05:38:24;102202.31;;;0.06
76713;BMP280;65640;43.154;25.658;2023-02-15T05:40:50;102209.47;;;0.12
76713;BMP280;65640;43.154;25.658;2023-02-15T05:43:16;102211.88;;;0.14
76713;BMP280;65640;43.154;25.658;2023-02-15T05:45:48;102216.13;;;0.23
76713;BMP280;65640;43.154;25.658;2023-02-15T05:48:14;102212.44;;;0.25
76713;BMP280;65640;43.154;25.658;2023-02-15T05:50:40;102215.00;;;0.25
76713;BMP280;65640;43.154;25.658;2023-02-15T05:53:05;102220.16;;;0.25
76713;BMP280;65640;43.154;25.658;2023-02-15T05:55:30;102217.81;;;0.32
76713;BMP280;65640;43.154;25.658;2023-02-15T05:57:56;102229.88;;;0.31
76713;BMP280;65640;43.154;25.658;2023-02-15T06:00:21;102231.56;;;0.23
76713;BMP280;65640;43.154;25.658;2023-02-15T06:02:47;102235.63;;;0.25
76713;BMP280;65640;43.154;25.658;2023-02-15T06:05:12;102232.50;;;0.40
76713;BMP280;65640;43.154;25.658;2023-02-15T06:07:38;102237.19;;;0.44
76713;BMP280;65640;43.154;25.658;2023-02-15T06:10:04;102238.84;;;0.53
76713;BMP280;65640;43.154;25.658;2023-02-15T06:12:30;102237.13;;;0.62
76713;BMP280;65640;43.154;25.658;2023-02-15T06:14:57;102238.13;;;0.69
76713;BMP280;65640;43.154;25.658;2023-02-15T06:17:22;102243.28;;;0.69
76713;BMP280;65640;43.154;25.658;2023-02-15T06:19:47;102234.94;;;0.75
76713;BMP280;65640;43.154;25.658;2023-02-15T06:22:13;102233.38;;;0.82
76713;BMP280;65640;43.154;25.658;2023-02-15T06:24:41;102235.69;;;0.93
76713;BMP280;65640;43.154;25.658;2023-02-15T06:27:08;102239.06;;;0.94
76713;BMP280;65640;43.154;25.658;2023-02-15T06:29:34;102247.19;;;1.07
76713;BMP280;65640;43.154;25.658;2023-02-15T06:32:00;102240.13;;;1.09
76713;BMP280;65640;43.154;25.658;2023-02-15T06:34:25;102236.09;;;1.15
76713;BMP280;65640;43.154;25.658;2023-02-15T06:36:51;102244.22;;;1.28
76713;BMP280;65640;43.154;25.658;2023-02-15T06:39:16;102249.69;;;1.41
76713;BMP280;65640;43.154;25.658;2023-02-15T06:41:41;102246.19;;;1.58
76713;BMP280;65640;43.154;25.658;2023-02-15T06:44:07;102243.31;;;1.69
76713;BMP280;65640;43.154;25.658;2023-02-15T06:46:32;102240.91;;;1.84
76713;BMP280;65640;43.154;25.658;2023-02-15T06:48:58;102245.91;;;1.94
76713;BMP280;65640;43.154;25.658;2023-02-15T06:51:23;102238.78;;;2.04
76713;BMP280;65640;43.154;25.658;2023-02-15T06:53:49;102244.78;;;2.21
76713;BMP280;65640;43.154;25.658;2023-02-15T06:56:14;102248.78;;;2.31
76713;BMP280;65640;43.154;25.658;2023-02-15T06:58:40;102244.25;;;2.33
76713;BMP280;65640;43.154;25.658;2023-02-15T07:01:07;102249.09;;;2.36
76713;BMP280;65640;43.154;25.658;2023-02-15T07:03:34;102242.31;;;2.43
76713;BMP280;65640;43.154;25.658;2023-02-15T07:06:01;102249.38;;;2.50
76713;BMP280;65640;43.154;25.658;2023-02-15T07:08:28;102235.00;;;2.55
76713;BMP280;65640;43.154;25.658;2023-02-15T07:10:55;102237.41;;;2.65
76713;BMP280;65640;43.154;25.658;2023-02-15T07:13:41;102231.19;;;2.82
76713;BMP280;65640;43.154;25.658;2023-02-15T07:16:08;102233.22;;;2.95
76713;BMP280;65640;43.154;25.658;2023-02-15T07:18:33;102236.25;;;3.06
76713;BMP280;65640;43.154;25.658;2023-02-15T07:20:59;102240.13;;;3.10
76713;BMP280;65640;43.154;25.658;2023-02-15T07:23:24;102229.03;;;3.25
76713;BMP280;65640;43.154;25.658;2023-02-15T07:25:59;102228.84;;;3.34
76713;BMP280;65640;43.154;25.658;2023-02-15T07:28:25;102221.41;;;3.54
76713;BMP280;65640;43.154;25.658;2023-02-15T07:30:50;102218.88;;;3.69
76713;BMP280;65640;43.154;25.658;2023-02-15T07:33:16;102228.88;;;3.72
76713;BMP280;65640;43.154;25.658;2023-02-15T07:35:56;102225.31;;;3.73
76713;BMP280;65640;43.154;25.658;2023-02-15T07:38:24;102222.44;;;3.68
76713;BMP280;65640;43.154;25.658;2023-02-15T07:40:49;102220.31;;;3.71
76713;BMP280;65640;43.154;25.658;2023-02-15T07:43:15;102216.91;;;3.71
76713;BMP280;65640;43.154;25.658;2023-02-15T07:45:41;102212.28;;;3.81
76713;BMP280;65640;43.154;25.658;2023-02-15T07:48:06;102215.25;;;3.93
76713;BMP280;65640;43.154;25.658;2023-02-15T07:50:32;102222.22;;;4.07
76713;BMP280;65640;43.154;25.658;2023-02-15T07:52:58;102211.25;;;4.19
76713;BMP280;65640;43.154;25.658;2023-02-15T07:55:26;102215.47;;;4.35
76713;BMP280;65640;43.154;25.658;2023-02-15T07:57:51;102216.88;;;4.52
76713;BMP280;65640;43.154;25.658;2023-02-15T08:00:20;102216.31;;;4.57
76713;BMP280;65640;43.154;25.658;2023-02-15T08:02:54;102205.56;;;4.75
76713;BMP280;65640;43.154;25.658;2023-02-15T08:05:39;102214.81;;;4.98
76713;BMP280;65640;43.154;25.658;2023-02-15T08:08:06;102202.78;;;5.12
76713;BMP280;65640;43.154;25.658;2023-02-15T08:10:32;102204.84;;;5.17
76713;BMP280;65640;43.154;25.658;2023-02-15T08:13:16;102206.06;;;5.21
76713;BMP280;65640;43.154;25.658;2023-02-15T08:15:51;102202.88;;;5.19
76713;BMP280;65640;43.154;25.658;2023-02-15T08:18:16;102210.88;;;5.24
76713;BMP280;65640;43.154;25.658;2023-02-15T08:20:42;102204.41;;;5.34
76713;BMP280;65640;43.154;25.658;2023-02-15T08:23:07;102196.78;;;5.54
76713;BMP280;65640;43.154;25.658;2023-02-15T08:25:33;102200.03;;;5.63
76713;BMP280;65640;43.154;25.658;2023-02-15T08:27:58;102203.66;;;5.68
76713;BMP280;65640;43.154;25.658;2023-02-15T08:30:23;102200.91;;;5.76
76713;BMP280;65640;43.154;25.658;2023-02-15T08:32:49;102193.38;;;5.88
76713;BMP280;65640;43.154;25.658;2023-02-15T08:35:14;102197.47;;;5.97
76713;BMP280;65640;43.154;25.658;2023-02-15T08:37:40;102197.53;;;6.10
76713;BMP280;65640;43.154;25.658;2023-02-15T08:40:06;102193.03;;;6.26
76713;BMP280;65640;43.154;25.658;2023-02-15T08:42:33;102200.44;;;6.29
76713;BMP280;65640;43.154;25.658;2023-02-15T08:44:58;102198.44;;;6.31
76713;BMP280;65640;43.154;25.658;2023-02-15T08:47:24;102210.47;;;6.45
76713;BMP280;65640;43.154;25.658;2023-02-15T08:49:49;102199.50;;;6.49
76713;BMP280;65640;43.154;25.658;2023-02-15T08:52:16;102202.50;;;6.46
76713;BMP280;65640;43.154;25.658;2023-02-15T08:54:42;102198.53;;;6.64
76713;BMP280;65640;43.154;25.658;2023-02-15T08:57:07;102197.19;;;6.81
76713;BMP280;65640;43.154;25.658;2023-02-15T08:59:33;102193.22;;;6.92
76713;BMP280;65640;43.154;25.658;2023-02-15T09:01:58;102190.63;;;7.05
76713;BMP280;65640;43.154;25.658;2023-02-15T09:04:24;102193.03;;;7.13
76713;BMP280;65640;43.154;25.658;2023-02-15T09:06:50;102189.66;;;7.19
76713;BMP280;65640;43.154;25.658;2023-02-15T09:09:17;102189.44;;;7.14
76713;BMP280;65640;43.154;25.658;2023-02-15T09:11:45;102188.81;;;7.25
76713;BMP280;65640;43.154;25.658;2023-02-15T09:14:17;102192.22;;;7.25
76713;BMP280;65640;43.154;25.658;2023-02-15T09:16:44;102189.44;;;7.40
76713;BMP280;65640;43.154;25.658;2023-02-15T09:19:15;102183.19;;;7.61
76713;BMP280;65640;43.154;25.658;2023-02-15T09:21:42;102185.38;;;7.77
76713;BMP280;65640;43.154;25.658;2023-02-15T09:24:09;102175.28;;;7.94
76713;BMP280;65640;43.154;25.658;2023-02-15T09:26:38;102177.88;;;7.94
76713;BMP280;65640;43.154;25.658;2023-02-15T09:29:05;102176.28;;;7.93
76713;BMP280;65640;43.154;25.658;2023-02-15T09:31:33;102177.66;;;8.02
76713;BMP280;65640;43.154;25.658;2023-02-15T09:34:00;102185.63;;;8.14
76713;BMP280;65640;43.154;25.658;2023-02-15T09:36:30;102182.75;;;8.35
76713;BMP280;65640;43.154;25.658;2023-02-15T09:53:18;102161.09;;;8.59
76713;BMP280;65640;43.154;25.658;2023-02-15T10:20:23;102131.81;;;9.07
76713;BMP280;65640;43.154;25.658;2023-02-15T10:31:28;102130.91;;;9.38
76713;BMP280;65640;43.154;25.658;2023-02-15T10:39:47;102118.75;;;9.80
76713;BMP280;65640;43.154;25.658;2023-02-15T10:52:57;102107.38;;;9.56
76713;BMP280;65640;43.154;25.658;2023-02-15T10:55:37;102114.47;;;9.49
76713;BMP280;65640;43.154;25.658;2023-02-15T10:58:49;102105.50;;;9.75
76713;BMP280;65640;43.154;25.658;2023-02-15T11:03:43;102101.84;;;9.82
76713;BMP280;65640;43.154;25.658;2023-02-15T11:06:14;102108.69;;;9.95
76713;BMP280;65640;43.154;25.658;2023-02-15T11:08:46;102103.88;;;9.80
76713;BMP280;65640;43.154;25.658;2023-02-15T11:11:31;102094.72;;;9.71
76713;BMP280;65640;43.154;25.658;2023-02-15T11:14:02;102088.59;;;9.77
76713;BMP280;65640;43.154;25.658;2023-02-15T11:16:38;102081.78;;;9.58
76713;BMP280;65640;43.154;25.658;2023-02-15T11:19:11;102087.53;;;9.30
76713;BMP280;65640;43.154;25.658;2023-02-15T11:21:42;102068.91;;;9.45
76713;BMP280;65640;43.154;25.658;2023-02-15T11:24:19;102067.31;;;9.74
76713;BMP280;65640;43.154;25.658;2023-02-15T11:26:54;102076.66;;;9.70
76713;BMP280;65640;43.154;25.658;2023-02-15T11:32:14;102071.88;;;9.78
76713;BMP280;65640;43.154;25.658;2023-02-15T11:38:21;102067.50;;;9.60
76713;BMP280;65640;43.154;25.658;2023-02-15T11:41:10;102064.50;;;9.57
76713;BMP280;65640;43.154;25.658;2023-02-15T11:46:27;102061.59;;;9.95
76713;BMP280;65640;43.154;25.658;2023-02-15T11:48:53;102060.69;;;9.89
76713;BMP280;65640;43.154;25.658;2023-02-15T11:51:21;102053.69;;;9.83
76713;BMP280;65640;43.154;25.658;2023-02-15T11:53:49;102045.16;;;10.06
76713;BMP280;65640;43.154;25.658;2023-02-15T11:56:16;102043.44;;;10.12
76713;BMP280;65640;43.154;25.658;2023-02-15T11:58:45;102043.91;;;10.09
76713;BMP280;65640;43.154;25.658;2023-02-15T12:06:27;102041.81;;;9.99
76713;BMP280;65640;43.154;25.658;2023-02-15T12:09:06;102040.59;;;9.72
76713;BMP280;65640;43.154;25.658;2023-02-15T12:11:37;102025.41;;;9.92
76713;BMP280;65640;43.154;25.658;2023-02-15T12:14:09;102040.03;;;10.23
76713;BMP280;65640;43.154;25.658;2023-02-15T12:16:42;102027.06;;;10.28
76713;BMP280;65640;43.154;25.658;2023-02-15T12:19:20;102033.34;;;10.15
76713;BMP280;65640;43.154;25.658;2023-02-15T12:21:49;102021.63;;;10.29
76713;BMP280;65640;43.154;25.658;2023-02-15T12:24:21;102026.53;;;10.37
76713;BMP280;65640;43.154;25.658;2023-02-15T12:29:26;102016.16;;;10.54
76713;BMP280;65640;43.154;25.658;2023-02-15T12:31:53;102010.22;;;10.70
76713;BMP280;65640;43.154;25.658;2023-02-15T12:34:35;102011.81;;;10.83
76713;BMP280;65640;43.154;25.658;2023-02-15T12:37:09;102017.81;;;10.83
76713;BMP280;65640;43.154;25.658;2023-02-15T12:39:35;102010.47;;;10.57
76713;BMP280;65640;43.154;25.658;2023-02-15T12:42:04;102012.16;;;10.63
76713;BMP280;65640;43.154;25.658;2023-02-15T12:44:35;102003.72;;;10.61
76713;BMP280;65640;43.154;25.658;2023-02-15T12:47:04;102013.19;;;10.62
76713;BMP280;65640;43.154;25.658;2023-02-15T12:49:33;102006.34;;;10.61
76713;BMP280;65640;43.154;25.658;2023-02-15T12:52:01;102009.28;;;10.88
76713;BMP280;65640;43.154;25.658;2023-02-15T12:59:54;102001.03;;;10.56
76713;BMP280;65640;43.154;25.658;2023-02-15T13:02:27;101989.50;;;10.80
76713;BMP280;65640;43.154;25.658;2023-02-15T13:04:53;101993.22;;;10.96
76713;BMP280;65640;43.154;25.658;2023-02-15T13:07:19;101992.06;;;10.92
76713;BMP280;65640;43.154;25.658;2023-02-15T13:09:45;101982.84;;;10.89
76713;BMP280;65640;43.154;25.658;2023-02-15T13:12:23;101994.91;;;11.02
76713;BMP280;65640;43.154;25.658;2023-02-15T13:14:52;101990.25;;;10.93
76713;BMP280;65640;43.154;25.658;2023-02-15T13:17:32;101990.13;;;10.87
76713;BMP280;65640;43.154;25.658;2023-02-15T13:20:05;101999.47;;;10.83
76713;BMP280;65640;43.154;25.658;2023-02-15T13:22:40;102001.34;;;10.48
76713;BMP280;65640;43.154;25.658;2023-02-15T13:25:25;101993.03;;;10.51
76713;BMP280;65640;43.154;25.658;2023-02-15T13:27:54;101989.06;;;10.60
76713;BMP280;65640;43.154;25.658;2023-02-15T13:30:27;101991.19;;;10.75
76713;BMP280;65640;43.154;25.658;2023-02-15T13:33:00;101992.69;;;10.82
76713;BMP280;65640;43.154;25.658;2023-02-15T13:35:36;101991.31;;;10.68
76713;BMP280;65640;43.154;25.658;2023-02-15T13:41:09;101984.59;;;10.61
76713;BMP280;65640;43.154;25.658;2023-02-15T14:00:01;101985.66;;;10.36
76713;BMP280;65640;43.154;25.658;2023-02-15T14:10:44;101989.28;;;10.35
76713;BMP280;65640;43.154;25.658;2023-02-15T14:18:54;101999.88;;;10.29
76713;BMP280;65640;43.154;25.658;2023-02-15T14:21:28;101995.66;;;10.28
76713;BMP280;65640;43.154;25.658;2023-02-15T14:31:35;102000.50;;;10.01
76713;BMP280;65640;43.154;25.658;2023-02-15T14:34:02;101999.00;;;9.93
76713;BMP280;65640;43.154;25.658;2023-02-15T14:36:30;102005.03;;;9.94
76713;BMP280;65640;43.154;25.658;2023-02-15T14:42:24;102003.44;;;9.93
76713;BMP280;65640;43.154;25.658;2023-02-15T14:45:03;102008.38;;;9.89
76713;BMP280;65640;43.154;25.658;2023-02-15T14:47:36;102005.03;;;9.82
76713;BMP280;65640;43.154;25.658;2023-02-15T14:55:46;102002.63;;;9.69
76713;BMP280;65640;43.154;25.658;2023-02-15T14:58:12;102014.09;;;9.68
76713;BMP280;65640;43.154;25.658;2023-02-15T15:00:40;102003.56;;;9.56
76713;BMP280;65640;43.154;25.658;2023-02-15T15:03:20;102004.03;;;9.53
76713;BMP280;65640;43.154;25.658;2023-02-15T15:05:49;102003.06;;;9.48
76713;BMP280;65640;43.154;25.658;2023-02-15T15:08:37;102002.97;;;9.43
76713;BMP280;65640;43.154;25.658;2023-02-15T15:13:58;102007.19;;;9.25
76713;BMP280;65640;43.154;25.658;2023-02-15T15:16:50;102004.88;;;9.17
76713;BMP280;65640;43.154;25.658;2023-02-15T15:22:20;102003.50;;;8.97
76713;BMP280;65640;43.154;25.658;2023-02-15T15:26:22;102010.38;;;8.91
76713;BMP280;65640;43.154;25.658;2023-02-15T15:28:00;102012.03;;;8.85
76713;BMP280;65640;43.154;25.658;2023-02-15T15:35:35;102008.69;;;8.60
76713;BMP280;65640;43.154;25.658;2023-02-15T15:38:05;102002.94;;;8.52
76713;BMP280;65640;43.154;25.658;2023-02-15T15:48:53;102011.84;;;8.13
76713;BMP280;65640;43.154;25.658;2023-02-15T15:51:21;102022.34;;;8.06
76713;BMP280;65640;43.154;25.658;2023-02-15T15:53:50;102019.56;;;8.01
76713;BMP280;65640;43.154;25.658;2023-02-15T15:56:26;102019.22;;;7.91
76713;BMP280;65640;43.154;25.658;2023-02-15T15:59:04;102027.09;;;7.84
76713;BMP280;65640;43.154;25.658;2023-02-15T16:01:35;102030.16;;;7.75
76713;BMP280;65640;43.154;25.658;2023-02-15T16:04:03;102026.53;;;7.69
76713;BMP280;65640;43.154;25.658;2023-02-15T16:06:37;102026.03;;;7.54
76713;BMP280;65640;43.154;25.658;2023-02-15T16:09:25;102032.31;;;7.33
76713;BMP280;65640;43.154;25.658;2023-02-15T16:11:57;102039.78;;;7.10
76713;BMP280;65640;43.154;25.658;2023-02-15T16:14:32;102039.59;;;7.05
76713;BMP280;65640;43.154;25.658;2023-02-15T16:17:01;102039.00;;;6.96
76713;BMP280;65640;43.154;25.658;2023-02-15T16:19:30;102042.00;;;6.86
76713;BMP280;65640;43.154;25.658;2023-02-15T16:21:58;102042.41;;;6.83
76713;BMP280;65640;43.154;25.658;2023-02-15T16:29:41;102042.22;;;6.52
76713;BMP280;65640;43.154;25.658;2023-02-15T16:32:21;102047.78;;;6.36
76713;BMP280;65640;43.154;25.658;2023-02-15T16:34:58;102051.19;;;6.36
76713;BMP280;65640;43.154;25.658;2023-02-15T16:37:26;102051.56;;;6.33
76713;BMP280;65640;43.154;25.658;2023-02-15T16:39:54;102058.78;;;6.31
76713;BMP280;65640;43.154;25.658;2023-02-15T16:42:20;102056.78;;;6.27
76713;BMP280;65640;43.154;25.658;2023-02-15T16:44:57;102058.94;;;6.17
76713;BMP280;65640;43.154;25.658;2023-02-15T16:47:31;102054.75;;;6.09
76713;BMP280;65640;43.154;25.658;2023-02-15T16:50:01;102049.09;;;5.99
76713;BMP280;65640;43.154;25.658;2023-02-15T16:52:28;102065.03;;;5.89
76713;BMP280;65640;43.154;25.658;2023-02-15T16:55:00;102065.47;;;5.86
76713;BMP280;65640;43.154;25.658;2023-02-15T16:57:32;102061.81;;;5.81
76713;BMP280;65640;43.154;25.658;2023-02-15T17:00:07;102061.38;;;5.70
76713;BMP280;65640;43.154;25.658;2023-02-15T17:02:34;102055.53;;;5.62
76713;BMP280;65640;43.154;25.658;2023-02-15T17:07:40;102052.44;;;5.45
76713;BMP280;65640;43.154;25.658;2023-02-15T17:12:54;102062.56;;;5.33
76713;BMP280;65640;43.154;25.658;2023-02-15T17:15:33;102060.72;;;5.27
76713;BMP280;65640;43.154;25.658;2023-02-15T17:20:38;102062.88;;;5.17
76713;BMP280;65640;43.154;25.658;2023-02-15T17:23:21;102067.81;;;5.12
76713;BMP280;65640;43.154;25.658;2023-02-15T17:25:47;102072.50;;;5.02
76713;BMP280;65640;43.154;25.658;2023-02-15T17:28:23;102071.28;;;4.98
76713;BMP280;65640;43.154;25.658;2023-02-15T17:30:51;102069.66;;;4.90